Weather observations for the past three days for
King Salmon, King Salmon Airport
| Date | Time (akdt) | Wind (kph) | Vis. (km) | Weather | Sky Cond. | Temperature (ºC) | Relative Humidity | Wind Chill (°C) | Heat Index (°C) | Pressure | Precipitation (cm) | ||||||
|---|---|---|---|---|---|---|---|---|---|---|---|---|---|---|---|---|---|
| Air | Dwpt | 6 hour | altimeter (cm) | sea level (mb) | 1 hr | 3 hr | 6 hr | ||||||||||
| Max. | Min. | ||||||||||||||||
| 06 | 00:54 | Calm | 16.09 | Mostly Cloudy | FEW006 BKN030 | 3.9 | 2.2 | 89% | 76 | 0.0 | |||||||
| 05 | 23:54 | Calm | 16.09 | Mostly Cloudy | FEW006 BKN030 | 4.4 | 2.8 | 89% | 75.92 | 0.0 | |||||||
| 05 | 22:54 | Calm | 16.09 | Mostly Cloudy | FEW006 BKN026 | 7.2 | 2.8 | 74% | 75.92 | 1012.0 | |||||||
| 05 | 21:54 | Calm | 16.09 | Mostly Cloudy | FEW006 BKN022 | 6.7 | 3.9 | 83% | 75.84 | 1011.3 | |||||||
| 05 | 20:54 | W 17 | 16.09 | Light Rain | BKN022 OVC035 | 3.9 | 2.8 | 93% | 0 | 75.82 | 1010.7 | ||||||
| 05 | 19:54 | W 17 | 16.09 | Light Rain | BKN015 | 0 | 0 | 0% | 75.77 | 0.0 | |||||||
| 05 | 18:54 | NW 19 | 11.27 | Light Rain | BKN015 | 0 | 0 | 0% | 75.72 | 0.0 | |||||||
| 05 | 17:54 | W 15 | 16.09 | Mostly Cloudy | BKN015 | 0 | 0 | 0% | 75.64 | 0.0 | |||||||
| 05 | 16:54 | W 11 | 16.09 | Overcast | OVC015 | 0 | 0 | 0% | 75.62 | 0.0 | |||||||
| 05 | 15:54 | W 15 | 16.09 | Overcast | OVC015 | 0 | 0 | 0% | 75.59 | 0.0 | |||||||
| 05 | 14:54 | W 15 | 16.09 | Overcast | OVC015 | 0 | 0 | 0% | 75.57 | 0.0 | |||||||
| 05 | 13:54 | NW 13 | 16.09 | Mostly Cloudy | BKN015 | 0 | 0 | 0% | 75.54 | 0.0 | |||||||
| 05 | 12:54 | NW 13 | 16.09 | Mostly Cloudy | BKN013 | 0 | 0 | 0% | 75.46 | 0.0 | |||||||
| 05 | 11:54 | E 15 | 16.09 | Mostly Cloudy | BKN008 | 0 | 0 | 0% | 75.41 | 0.0 | |||||||
| 05 | 10:54 | SE 15 | 16.09 | Overcast | OVC007 | 4.4 | 2.8 | 89% | 1 | 75.36 | 1004.7 | ||||||
| 05 | 09:54 | SE 13 | 16.09 | Overcast | OVC007 | 3.9 | 2.8 | 93% | 1 | 75.31 | 1004.0 | ||||||
| 05 | 08:54 | S 13 | 16.09 | Overcast | OVC005 | 3.9 | 2.8 | 93% | 1 | 75.23 | 1003.1 | ||||||
| 05 | 07:54 | S 15 | 16.09 | Overcast | OVC005 | 3.3 | 2.2 | 93% | 0 | 75.16 | 0.0 | ||||||
| 05 | 03:54 | NE 19 | 16.09 | Overcast | OVC030 | 5.6 | 2.8 | 82% | 2 | 74.9 | 0.0 | ||||||
| 05 | 02:54 | E 9 | 16.09 | Overcast | OVC030 | 6.1 | 2.8 | 80% | 4 | 74.88 | 0.0 | ||||||
| 05 | 01:54 | E 9 | 16.09 | Light Rain | BKN030 | 6.1 | 2.8 | 80% | 4 | 74.85 | 0.0 | ||||||
| 05 | 00:54 | E 9 | 16.09 | Light Rain | BKN030 | 5.6 | 2.2 | 79% | 4 | 74.8 | 0.0 | ||||||
| 04 | 23:54 | NE 9 | 16.09 | Mostly Cloudy | BKN030 | 7.2 | 1.7 | 68% | 6 | 74.78 | 0.0 | ||||||
| 04 | 22:54 | E 13 | 16.09 | Mostly Cloudy | BKN030 | 6.1 | 1.7 | 74% | 4 | 74.75 | 0.0 | ||||||
| 04 | 21:54 | E 13 | 16.09 | Mostly Cloudy | BKN030 | 8.9 | 2.8 | 66% | 7 | 74.7 | 0.0 | ||||||
| 04 | 20:54 | E 9 | 16.09 | Mostly Cloudy | BKN065 | 8.9 | 3.9 | 71% | 8 | 74.7 | 0.0 | ||||||
| 04 | 18:54 | NE 19 | 16.09 | Partly Cloudy | FEW020 SCT100 | 0 | 0 | 0% | 74.73 | 0.0 | |||||||
| 04 | 17:54 | N 19 | 16.09 | Mostly Cloudy | FEW020 BKN050 | 0 | 0 | 0% | 74.7 | 0.0 | |||||||
| 04 | 16:54 | N 19 | 16.09 | Light Rain | FEW020 BKN050 | 0 | 0 | 0% | 74.75 | 0.0 | |||||||
| 04 | 15:54 | N 19 | 16.09 | Light Rain | SCT020 BKN030 | 0 | 0 | 0% | 74.83 | 0.0 | |||||||
| 04 | 14:54 | N 22 | 16.09 | Light Rain | SCT020 BKN030 | 0 | 0 | 0% | 74.85 | 0.0 | |||||||
| 04 | 13:54 | N 17 | 16.09 | Light Rain | FEW020 BKN030 | 0 | 0 | 0% | 74.93 | 0.0 | |||||||
| 04 | 12:54 | N 19 | 16.09 | Light Rain | FEW020 BKN030 | 0 | 0 | 0% | 74.98 | 0.0 | |||||||
| 04 | 11:54 | N 19 | 16.09 | Light Rain | FEW020 BKN030 | 0 | 0 | 0% | 75.06 | 0.0 | |||||||
| 04 | 10:54 | N 15 | 16.09 | Light Rain | BKN030 | 0 | 0 | 0% | 75.16 | 0.0 | |||||||
| 04 | 09:54 | N 15 | 11.27 | Light Rain Fog/Mist | OVC030 | 0 | 0 | 0% | 75.23 | 0.0 | |||||||
| 04 | 08:54 | N 15 | 6.44 | Light Rain Fog/Mist | OVC010 | 0 | 0 | 0% | 75.36 | 0.0 | |||||||
| 04 | 03:54 | NE 13 | 16.09 | Light Rain | OVC020 | 5 | 2.8 | 86% | 2 | 75.74 | 1009.7 | ||||||
| 04 | 02:54 | NE 13 | 16.09 | Light Rain | OVC020 | 4.4 | 2.8 | 89% | 2 | 75.79 | 1010.5 | ||||||
| 04 | 01:54 | NE 13 | 16.09 | Light Rain | OVC020 | 5 | 2.8 | 86% | 2 | 75.84 | 1011.0 | ||||||
| 04 | 00:54 | NE 9 | 16.09 | Light Rain | OVC020 | 5.6 | 2.8 | 82% | 4 | 75.87 | 1011.5 | ||||||
| 03 | 23:54 | E 13 | 16.09 | Light Rain | BKN019 | 4.4 | 2.8 | 89% | 2 | 75.9 | 1011.8 | ||||||
| 03 | 22:54 | Vrbl 6 | 16.09 | Mostly Cloudy | BKN022 | 5 | 2.8 | 86% | 75.92 | 1012.1 | |||||||
| 03 | 21:54 | Vrbl 6 | 16.09 | Mostly Cloudy | BKN025 BKN040 | 6.1 | 2.2 | 76% | 75.92 | 0.0 | |||||||
| 03 | 20:54 | Calm | 16.09 | Light Rain | BKN024 BKN080 | 8.3 | 2.2 | 66% | 75.92 | 0.0 | |||||||
| 03 | 19:54 | N 6 | 16.09 | Light Rain | BKN040 | 0 | 0 | 0% | 75.95 | 0.0 | |||||||
| 03 | 18:54 | NE 15 | 16.09 | Light Rain | BKN040 | 7.8 | 3.9 | 77% | 6 | 75.97 | 0.0 | ||||||
| 03 | 17:54 | N 9 | 16.09 | Light Rain | BKN040 | 7.8 | 3.9 | 77% | 6 | 76 | 0.0 | ||||||
| 03 | 16:54 | N 9 | 16.09 | Light Rain | BKN040 BKN080 | 7.8 | 3.9 | 77% | 6 | 76.05 | 0.0 | ||||||
| 03 | 15:54 | N 9 | 16.09 | Light Rain | BKN040 BKN075 | 7.8 | 3.9 | 77% | 6 | 76.07 | 1014.2 | ||||||
| 03 | 14:54 | Vrbl 7 | 16.09 | Mostly Cloudy | FEW040 BKN075 | 7.8 | 3.9 | 77% | 7 | 76.1 | 1014.5 | ||||||
| 03 | 13:54 | N 9 | 16.09 | Mostly Cloudy | FEW050 BKN075 | 7.8 | 3.9 | 77% | 6 | 76.15 | 0.0 | ||||||
| 03 | 12:54 | N 9 | 16.09 | Mostly Cloudy | FEW050 BKN075 | 7.8 | 3.9 | 77% | 6 | 76.17 | 1015.5 | ||||||
| 03 | 11:54 | Vrbl 7 | 16.09 | Mostly Cloudy | SCT080 BKN120 | 7.8 | 3.9 | 77% | 7 | 76.2 | 1015.8 | ||||||
| 03 | 10:54 | Vrbl 7 | 16.09 | Mostly Cloudy | SCT080 BKN120 | 7.8 | 3.9 | 77% | 7 | 76.2 | 1016.0 | ||||||
| 03 | 09:54 | Vrbl 7 | 16.09 | Mostly Cloudy | SCT080 BKN120 | 0 | 0 | 0% | 76.23 | 0.0 | |||||||
| 03 | 08:54 | Vrbl 7 | 16.09 | Mostly Cloudy | SCT060 BKN100 | 0 | 0 | 0% | 76.25 | 0.0 | |||||||
| 03 | 07:54 | Vrbl 7 | 16.09 | Mostly Cloudy | SCT060 BKN100 | 0 | 0 | 0% | 76.23 | 0.0 | |||||||
| 03 | 03:54 | Vrbl 9 | 16.09 | Partly Cloudy | SCT035 | 3.9 | 1.1 | 82% | 2 | 76.25 | 1016.5 | ||||||
| 03 | 02:54 | Calm | 16.09 | Partly Cloudy | SCT034 | 3.3 | 1.1 | 86% | 76.25 | 1016.4 | |||||||
| 03 | 01:54 | S 7 | 16.09 | A Few Clouds | FEW035 | 4.5 | 1.2 | 79% | 3 | 76.25 | 0.0 | ||||||
| Date | Time (akdt) | Wind (kph) | Vis. (km) | Weather | Sky Cond. | Air | Dwpt | Max. | Min. | Relative Humidity | Wind Chill (°C) | Heat Index (°C) | altimeter (cm) | sea level (mb) | 1 hr | 3 hr | 6 hr |
| 6 hour | |||||||||||||||||
| Temperature (ºC) | Pressure | Precipitation (cm) | |||||||||||||||